Time;durP1;ratioP1;P1;durP2;ratioP2;P2;SDS_P1;SDS_P2;PMS_P1;PMS_P2;Temp;Humidity;BMP_temperature;BMP_pressure;BME280_temperature;BME280_humidity;BME280_pressure;Samples;Min_cycle;Max_cycle;Signal;HPM_P1;HPM_P2
2023/04/06 00:01:53;;;;;;;12.30;6.80;;;4.00;99.90;;;;;;5040019;28;20358;-81
2023/04/06 00:04:42;;;;;;;11.77;7.07;;;3.90;99.90;;;;;;5028898;28;20229;-82
2023/04/06 00:07:33;;;;;;;12.87;6.40;;;3.90;99.90;;;;;;5033762;28;20312;-83
2023/04/06 00:10:23;;;;;;;15.57;6.90;;;3.80;99.90;;;;;;5042839;28;20220;-82
2023/04/06 00:13:12;;;;;;;13.57;6.83;;;3.90;99.90;;;;;;5026982;28;20213;-82
2023/04/06 00:16:01;;;;;;;10.60;6.07;;;4.00;99.90;;;;;;5043384;28;20306;-82
2023/04/06 00:18:50;;;;;;;11.20;6.27;;;4.00;99.90;;;;;;5043313;28;20239;-82
2023/04/06 00:21:39;;;;;;;10.20;6.23;;;4.00;99.90;;;;;;5020835;28;20225;-82
2023/04/06 00:24:27;;;;;;;15.07;6.47;;;4.00;99.90;;;;;;5039659;28;20304;-85
2023/04/06 00:27:18;;;;;;;10.37;6.17;;;4.00;99.90;;;;;;5037208;28;20231;-84
2023/04/06 00:30:08;;;;;;;13.07;6.53;;;3.90;99.90;;;;;;5034521;28;20228;-81
2023/04/06 00:32:57;;;;;;;10.73;6.20;;;3.90;99.90;;;;;;5008330;28;20221;-84
2023/04/06 00:35:46;;;;;;;10.70;6.27;;;4.10;99.90;;;;;;5018480;28;20233;-84
2023/04/06 00:38:35;;;;;;;14.30;6.60;;;3.90;99.90;;;;;;5041501;28;20217;-80
2023/04/06 00:41:24;;;;;;;12.40;6.30;;;3.90;99.90;;;;;;5022123;28;20902;-82
2023/04/06 00:44:15;;;;;;;13.40;6.30;;;4.10;99.90;;;;;;5039186;28;20386;-83
2023/04/06 00:47:04;;;;;;;13.73;6.80;;;4.20;99.90;;;;;;5039561;28;20228;-82
2023/04/06 00:49:53;;;;;;;13.80;6.60;;;4.20;99.90;;;;;;5032334;28;20229;-83
2023/04/06 00:52:41;;;;;;;16.70;6.83;;;4.00;99.90;;;;;;5017407;28;20221;-82
2023/04/06 00:55:31;;;;;;;13.70;6.40;;;4.00;99.90;;;;;;5016773;28;21829;-81
2023/04/06 00:58:20;;;;;;;10.13;5.83;;;4.10;99.90;;;;;;5019477;28;20310;-81
2023/04/06 01:01:16;;;;;;;12.97;6.50;;;4.10;99.90;;;;;;5035548;28;20217;-86
2023/04/06 01:04:05;;;;;;;12.23;6.67;;;4.20;99.90;;;;;;5039527;28;20220;-85
2023/04/06 01:07:01;;;;;;;13.40;6.20;;;4.30;99.90;;;;;;5030435;28;20217;-86
2023/04/06 01:09:59;;;;;;;11.27;6.13;;;4.20;99.90;;;;;;5036367;28;20331;-87
2023/04/06 01:12:50;;;;;;;7.80;5.40;;;4.20;99.90;;;;;;5035874;28;20250;-83
2023/04/06 01:15:50;;;;;;;10.80;5.77;;;4.30;99.90;;;;;;5042557;28;20243;-81
2023/04/06 01:18:47;;;;;;;10.43;5.77;;;4.30;99.90;;;;;;5022039;28;20814;-81
2023/04/06 01:21:43;;;;;;;11.63;6.00;;;4.10;99.90;;;;;;5024693;28;20239;-81
2023/04/06 01:25:03;;;;;;;8.30;5.30;;;4.20;99.90;;;;;;5025738;28;20233;-80
2023/04/06 01:27:58;;;;;;;9.03;5.00;;;4.00;99.90;;;;;;5032145;28;20229;-86
2023/04/06 01:31:13;;;;;;;9.57;5.13;;;4.30;99.90;;;;;;5020996;28;20906;-86
2023/04/06 01:34:09;;;;;;;8.27;4.90;;;4.20;99.90;;;;;;5030293;28;20640;-85
2023/04/06 01:36:58;;;;;;;8.07;4.83;;;4.00;99.90;;;;;;5038622;28;20252;-85
2023/04/06 01:39:52;;;;;;;9.77;4.60;;;3.90;99.90;;;;;;5030053;28;20247;-85
2023/04/06 01:42:55;;;;;;;10.20;4.80;;;4.00;99.90;;;;;;5026239;28;20288;-84
2023/04/06 01:46:00;;;;;;;7.87;4.57;;;4.20;99.90;;;;;;5055029;28;20229;-82
2023/04/06 01:48:54;;;;;;;9.20;4.57;;;3.90;99.90;;;;;;5034839;28;20236;-81
2023/04/06 01:52:04;;;;;;;9.83;4.37;;;4.00;99.90;;;;;;5043460;28;20319;-82
2023/04/06 01:54:52;;;;;;;7.17;3.80;;;4.00;99.90;;;;;;5032068;28;20751;-81
2023/04/06 01:57:55;;;;;;;8.83;4.47;;;4.00;99.90;;;;;;5034492;28;20219;-81
2023/04/06 02:00:54;;;;;;;8.53;4.27;;;3.90;99.90;;;;;;5029761;28;20689;-81
2023/04/06 02:03:42;;;;;;;7.73;4.03;;;4.10;99.90;;;;;;5027070;28;20713;-82
2023/04/06 02:06:32;;;;;;;8.97;4.33;;;4.20;99.90;;;;;;5032798;28;20537;-81
2023/04/06 02:09:23;;;;;;;8.10;4.30;;;4.40;99.90;;;;;;5033067;28;20241;-81
2023/04/06 02:12:15;;;;;;;8.47;4.47;;;4.10;99.90;;;;;;5015627;28;20255;-81
2023/04/06 02:15:06;;;;;;;11.43;5.37;;;4.10;99.90;;;;;;5025666;28;20711;-82
2023/04/06 02:17:55;;;;;;;7.13;4.20;;;4.10;99.90;;;;;;5024963;28;20217;-80
2023/04/06 02:20:46;;;;;;;9.63;4.90;;;4.00;99.90;;;;;;5024503;28;20216;-81
2023/04/06 02:23:34;;;;;;;7.70;4.90;;;4.10;99.90;;;;;;5043954;28;20359;-78
2023/04/06 02:26:23;;;;;;;8.90;4.60;;;4.20;99.90;;;;;;5026600;28;20224;-77
2023/04/06 02:29:15;;;;;;;10.17;5.03;;;4.30;99.90;;;;;;5051497;28;20237;-77
2023/04/06 02:32:06;;;;;;;10.13;4.90;;;4.20;99.90;;;;;;5037041;28;20236;-78
2023/04/06 02:34:55;;;;;;;8.90;5.17;;;4.10;99.90;;;;;;5050162;28;20255;-80
2023/04/06 02:37:44;;;;;;;8.90;5.17;;;3.90;99.90;;;;;;5033611;28;20241;-79
2023/04/06 02:40:33;;;;;;;11.20;5.30;;;4.20;99.90;;;;;;5030832;28;20504;-83
2023/04/06 02:43:30;;;;;;;8.83;5.00;;;4.20;99.90;;;;;;5026306;28;20229;-82
2023/04/06 02:46:26;;;;;;;7.00;4.87;;;4.30;99.90;;;;;;5042885;28;20255;-82
2023/04/06 02:49:16;;;;;;;9.97;5.13;;;4.50;99.90;;;;;;5042842;28;20296;-83
2023/04/06 02:52:06;;;;;;;8.27;5.50;;;4.40;99.90;;;;;;5042612;28;20471;-83
2023/04/06 02:54:57;;;;;;;9.63;5.27;;;4.30;99.90;;;;;;5040145;28;20360;-83
2023/04/06 02:57:49;;;;;;;10.53;5.30;;;4.00;99.90;;;;;;5044806;28;20235;-79
2023/04/06 03:00:40;;;;;;;11.20;5.57;;;4.20;99.90;;;;;;5041107;28;20931;-79
2023/04/06 03:03:29;;;;;;;11.53;5.90;;;3.90;99.90;;;;;;5042860;28;20217;-84
2023/04/06 03:06:20;;;;;;;11.87;6.23;;;3.90;99.90;;;;;;5025395;28;20229;-85
2023/04/06 03:09:14;;;;;;;14.10;6.40;;;3.90;99.90;;;;;;5035525;28;20218;-86
2023/04/06 03:12:05;;;;;;;14.67;7.63;;;4.00;99.90;;;;;;5026782;28;20888;-84
2023/04/06 03:15:13;;;;;;;14.97;7.00;;;4.00;99.90;;;;;;5048706;28;20258;-78
2023/04/06 03:18:07;;;;;;;13.03;6.37;;;4.00;99.90;;;;;;5026693;28;20250;-80
2023/04/06 03:21:01;;;;;;;12.70;6.87;;;4.10;99.90;;;;;;5021649;28;20304;-78
2023/04/06 03:24:02;;;;;;;9.90;6.30;;;4.00;99.90;;;;;;5018054;28;20218;-78
2023/04/06 03:26:51;;;;;;;12.47;6.30;;;3.90;99.90;;;;;;5028055;28;20221;-83
2023/04/06 03:29:41;;;;;;;12.47;6.30;;;3.90;99.90;;;;;;5018466;28;22065;-87
2023/04/06 03:32:34;;;;;;;15.07;6.50;;;3.80;99.90;;;;;;5034251;28;20287;-86
2023/04/06 03:35:23;;;;;;;11.23;6.57;;;3.80;99.90;;;;;;5051930;28;20239;-85
2023/04/06 03:38:14;;;;;;;14.20;6.73;;;3.90;99.90;;;;;;5036726;28;20236;-72
2023/04/06 03:41:05;;;;;;;13.40;6.93;;;3.90;99.90;;;;;;5030426;28;20236;-71
2023/04/06 03:43:54;;;;;;;13.93;6.93;;;4.00;99.90;;;;;;5027057;28;20315;-73
2023/04/06 03:46:43;;;;;;;13.53;6.63;;;3.90;99.90;;;;;;5032713;28;20302;-75
2023/04/06 03:49:42;;;;;;;12.80;6.83;;;3.80;99.90;;;;;;5008402;28;20241;-75
2023/04/06 03:52:39;;;;;;;11.03;6.07;;;3.60;99.90;;;;;;5009988;28;20320;-76
2023/04/06 03:55:28;;;;;;;14.50;7.27;;;3.60;99.90;;;;;;5037961;28;20816;-75
2023/04/06 03:58:19;;;;;;;15.00;7.37;;;3.60;99.90;;;;;;5040924;28;20228;-76
2023/04/06 04:01:33;;;;;;;15.33;7.23;;;3.70;99.90;;;;;;5038299;28;20222;-77
2023/04/06 04:04:23;;;;;;;16.20;7.17;;;3.70;99.90;;;;;;5021053;28;20236;-78
2023/04/06 04:07:13;;;;;;;18.93;7.67;;;3.80;99.90;;;;;;5023260;28;20221;-78
2023/04/06 04:10:04;;;;;;;13.77;7.13;;;4.00;99.90;;;;;;5039508;28;20315;-82
2023/04/06 04:12:53;;;;;;;15.53;6.90;;;3.80;99.90;;;;;;5044328;28;20267;-82
2023/04/06 04:15:44;;;;;;;12.67;6.50;;;3.90;99.90;;;;;;5028062;28;20237;-78
2023/04/06 04:18:33;;;;;;;13.10;6.60;;;4.00;99.90;;;;;;5031910;28;20605;-81
2023/04/06 04:21:22;;;;;;;11.30;6.20;;;3.80;99.90;;;;;;5041251;28;20349;-82
2023/04/06 04:24:10;;;;;;;15.27;7.00;;;3.90;99.90;;;;;;5017051;28;21064;-80
2023/04/06 04:27:01;;;;;;;14.40;6.80;;;3.90;99.90;;;;;;5044103;28;20327;-84
2023/04/06 04:29:52;;;;;;;12.00;6.97;;;3.70;99.90;;;;;;5016239;28;20225;-84
2023/04/06 04:32:43;;;;;;;16.00;7.13;;;3.70;99.90;;;;;;5029497;28;20273;-83
2023/04/06 04:35:33;;;;;;;14.40;7.03;;;3.80;99.90;;;;;;5027388;28;20441;-80
2023/04/06 04:38:22;;;;;;;15.73;7.40;;;3.70;99.90;;;;;;5040546;28;20304;-81
2023/04/06 04:41:14;;;;;;;13.10;7.30;;;3.80;99.90;;;;;;5026839;28;20755;-80
2023/04/06 04:44:05;;;;;;;15.37;7.03;;;3.90;99.90;;;;;;5036182;28;20712;-81
2023/04/06 04:46:54;;;;;;;13.67;6.63;;;4.00;99.90;;;;;;5040275;28;20260;-80
2023/04/06 04:49:51;;;;;;;16.10;6.83;;;4.20;99.90;;;;;;5023324;28;20814;-81
2023/04/06 04:52:43;;;;;;;13.23;6.13;;;4.10;99.90;;;;;;5020877;28;20584;-81
2023/04/06 04:55:37;;;;;;;14.37;6.80;;;3.80;99.90;;;;;;5015750;28;20279;-81
2023/04/06 04:58:26;;;;;;;13.97;6.17;;;3.70;99.90;;;;;;5032903;28;20239;-80
2023/04/06 05:01:18;;;;;;;16.27;6.73;;;3.80;99.90;;;;;;5028655;28;20273;-79
2023/04/06 05:04:07;;;;;;;13.93;6.03;;;3.80;99.90;;;;;;5025654;28;20228;-80
2023/04/06 05:07:05;;;;;;;10.97;5.73;;;3.80;99.90;;;;;;5034125;28;20580;-78
2023/04/06 05:09:55;;;;;;;13.10;6.00;;;3.70;99.90;;;;;;5031473;28;20259;-78
2023/04/06 05:12:47;;;;;;;11.60;6.27;;;3.70;99.90;;;;;;5033954;28;20236;-79
2023/04/06 05:15:37;;;;;;;13.37;5.80;;;3.70;99.90;;;;;;5022185;28;21248;-78
2023/04/06 05:18:34;;;;;;;13.20;6.23;;;3.90;99.90;;;;;;5023455;28;20250;-77
2023/04/06 05:21:24;;;;;;;12.60;5.80;;;3.80;99.90;;;;;;5023816;28;20238;-75
2023/04/06 05:24:23;;;;;;;11.60;5.53;;;3.90;99.90;;;;;;5026001;28;20236;-79
2023/04/06 05:27:13;;;;;;;11.60;5.90;;;3.80;99.90;;;;;;5019250;28;20227;-80
2023/04/06 05:30:03;;;;;;;12.70;6.40;;;3.90;99.90;;;;;;5023608;28;20954;-82
2023/04/06 05:32:57;;;;;;;13.13;5.90;;;3.80;99.90;;;;;;5001313;28;20218;-79
2023/04/06 05:35:50;;;;;;;14.37;5.80;;;4.00;99.90;;;;;;5049073;28;20229;-80
2023/04/06 05:38:39;;;;;;;13.93;5.67;;;3.80;99.90;;;;;;5024816;28;20231;-80
2023/04/06 05:41:42;;;;;;;15.50;6.47;;;4.00;99.90;;;;;;5037384;28;20271;-77
2023/04/06 05:44:33;;;;;;;13.80;6.43;;;3.80;99.90;;;;;;5022189;28;20226;-79
2023/04/06 05:47:33;;;;;;;12.50;6.10;;;4.00;99.90;;;;;;5019213;28;20304;-79
2023/04/06 05:50:34;;;;;;;11.10;6.17;;;4.20;99.90;;;;;;5015087;28;20255;-73
2023/04/06 05:53:26;;;;;;;11.03;6.20;;;4.20;99.90;;;;;;5017407;28;20232;-76
2023/04/06 05:56:18;;;;;;;11.87;5.77;;;4.40;99.90;;;;;;5016532;28;20770;-77
2023/04/06 05:59:08;;;;;;;12.17;6.20;;;4.00;99.90;;;;;;5015224;28;20566;-75
2023/04/06 06:01:57;;;;;;;12.40;5.73;;;4.30;99.90;;;;;;5019618;28;20240;-77
2023/04/06 06:04:47;;;;;;;13.73;5.33;;;4.20;99.90;;;;;;5016074;28;20755;-77
2023/04/06 06:07:37;;;;;;;11.33;5.63;;;4.20;99.90;;;;;;5041351;28;20753;-77
2023/04/06 06:10:26;;;;;;;12.00;5.97;;;4.10;99.90;;;;;;5038944;28;20323;-78
2023/04/06 06:13:14;;;;;;;12.63;5.50;;;4.60;99.90;;;;;;5043042;28;20222;-78
2023/04/06 06:16:06;;;;;;;13.53;5.47;;;4.50;99.90;;;;;;5023995;28;20976;-76
2023/04/06 06:18:59;;;;;;;12.53;5.27;;;4.50;99.90;;;;;;5041411;28;20221;-74
2023/04/06 06:21:48;;;;;;;9.20;5.10;;;4.50;99.90;;;;;;5037551;28;20287;-71
2023/04/06 06:24:37;;;;;;;10.93;5.47;;;4.50;99.90;;;;;;5027550;28;20256;-78
2023/04/06 06:27:26;;;;;;;11.50;5.20;;;4.40;99.90;;;;;;5041542;28;20228;-79
2023/04/06 06:30:15;;;;;;;14.37;5.40;;;4.70;99.90;;;;;;5017909;28;20221;-78
2023/04/06 06:33:07;;;;;;;9.03;4.30;;;4.90;99.90;;;;;;5035656;28;20639;-78
2023/04/06 06:35:56;;;;;;;10.57;4.87;;;4.50;99.90;;;;;;5024514;28;20308;-76
2023/04/06 06:38:45;;;;;;;8.27;4.33;;;4.80;99.90;;;;;;5014023;28;20233;-77
2023/04/06 06:41:37;;;;;;;7.33;4.23;;;4.70;99.90;;;;;;5032083;28;20969;-77
2023/04/06 06:44:27;;;;;;;9.30;4.47;;;4.80;99.90;;;;;;5020304;28;20229;-77
2023/04/06 06:47:16;;;;;;;12.67;4.30;;;4.70;99.90;;;;;;5038424;28;20217;-76
2023/04/06 06:50:08;;;;;;;9.43;4.60;;;4.90;99.90;;;;;;5028540;28;20587;-84
2023/04/06 06:52:57;;;;;;;7.10;3.60;;;4.70;99.90;;;;;;5009455;28;20693;-81
2023/04/06 06:55:45;;;;;;;8.23;3.60;;;4.40;99.90;;;;;;5041226;28;20709;-83
2023/04/06 06:58:35;;;;;;;9.53;3.57;;;4.30;99.90;;;;;;5046533;28;20224;-84
2023/04/06 07:01:24;;;;;;;8.40;3.40;;;4.00;99.90;;;;;;5046595;28;20228;-81
2023/04/06 07:04:14;;;;;;;6.60;3.27;;;4.50;99.90;;;;;;5041277;28;20228;-80
2023/04/06 07:07:05;;;;;;;5.97;3.50;;;4.50;99.90;;;;;;5025157;28;20901;-80
2023/04/06 07:09:53;;;;;;;8.37;3.53;;;4.50;99.90;;;;;;5024742;28;20388;-80
2023/04/06 07:12:42;;;;;;;8.10;3.27;;;4.30;99.90;;;;;;5022442;28;20233;-83
2023/04/06 07:15:31;;;;;;;7.67;3.30;;;4.50;99.90;;;;;;5014493;28;20232;-81
2023/04/06 07:18:20;;;;;;;5.40;3.30;;;4.70;99.90;;;;;;5036543;28;20225;-80
2023/04/06 07:21:09;;;;;;;8.83;3.57;;;4.70;99.90;;;;;;5025626;28;20290;-81
2023/04/06 07:24:01;;;;;;;6.00;3.33;;;4.60;99.90;;;;;;5027500;28;20256;-79
2023/04/06 07:26:50;;;;;;;8.63;3.47;;;4.40;99.90;;;;;;5020533;28;20277;-77
2023/04/06 07:29:40;;;;;;;7.50;3.33;;;4.20;99.90;;;;;;5038068;28;20225;-81
2023/04/06 07:32:31;;;;;;;4.87;2.57;;;4.20;99.90;;;;;;5020232;28;20221;-78
2023/04/06 07:35:20;;;;;;;6.37;3.07;;;4.30;99.90;;;;;;5023362;28;20701;-82
2023/04/06 07:38:09;;;;;;;4.10;3.00;;;4.40;99.90;;;;;;5050148;28;20225;-76
2023/04/06 07:40:59;;;;;;;6.93;3.13;;;4.60;99.90;;;;;;5030497;28;20229;-83
2023/04/06 07:43:49;;;;;;;13.57;3.53;;;4.60;99.90;;;;;;5029847;28;20224;-74
2023/04/06 07:46:38;;;;;;;6.37;3.10;;;4.80;99.90;;;;;;5014125;28;20380;-75
2023/04/06 07:49:27;;;;;;;5.83;3.37;;;4.40;99.90;;;;;;5027840;28;20221;-84
2023/04/06 07:52:17;;;;;;;5.47;3.30;;;4.50;99.90;;;;;;5036218;28;20687;-81
2023/04/06 07:55:06;;;;;;;6.47;3.23;;;4.60;99.90;;;;;;5019107;28;20696;-77
2023/04/06 07:57:57;;;;;;;4.93;3.70;;;4.60;99.90;;;;;;5006185;28;20226;-83
2023/04/06 08:00:45;;;;;;;6.23;3.33;;;4.70;99.90;;;;;;5037789;28;20228;-76
2023/04/06 08:03:35;;;;;;;8.17;3.93;;;4.50;99.90;;;;;;5019799;28;20225;-82
2023/04/06 08:06:24;;;;;;;5.53;3.53;;;4.70;99.90;;;;;;5040441;28;20592;-78
2023/04/06 08:09:15;;;;;;;5.97;3.43;;;5.10;99.90;;;;;;5031177;28;20928;-77
2023/04/06 08:12:05;;;;;;;8.30;3.50;;;5.30;99.90;;;;;;5024759;28;20230;-78
2023/04/06 08:14:56;;;;;;;9.47;4.97;;;5.30;99.90;;;;;;5017562;28;20239;-77
2023/04/06 08:17:45;;;;;;;9.70;4.20;;;5.20;99.90;;;;;;5028509;28;20310;-77
2023/04/06 08:20:34;;;;;;;8.30;3.80;;;5.80;99.90;;;;;;4999252;28;20233;-76
2023/04/06 08:23:23;;;;;;;6.90;3.63;;;6.00;99.90;;;;;;5025021;28;20902;-78
2023/04/06 08:26:12;;;;;;;6.93;3.60;;;5.90;99.90;;;;;;5029569;28;20546;-78
2023/04/06 08:29:03;;;;;;;7.17;3.47;;;5.60;99.90;;;;;;5037942;28;20692;-77
2023/04/06 08:31:53;;;;;;;7.83;3.90;;;5.20;99.90;;;;;;5037466;28;20225;-77
2023/04/06 08:34:42;;;;;;;8.70;3.97;;;4.90;99.90;;;;;;5020754;28;20327;-76
2023/04/06 08:37:32;;;;;;;7.37;3.83;;;4.90;99.90;;;;;;5027150;28;20604;-77
2023/04/06 08:40:21;;;;;;;7.17;3.73;;;5.00;99.90;;;;;;5019123;28;20511;-78
2023/04/06 08:43:13;;;;;;;9.23;3.57;;;4.70;99.90;;;;;;5018586;28;20213;-77
2023/04/06 08:46:02;;;;;;;6.70;3.70;;;4.80;99.90;;;;;;5016726;28;20297;-80
2023/04/06 08:48:53;;;;;;;6.13;3.70;;;4.70;99.90;;;;;;5028862;28;20572;-77
2023/04/06 08:51:43;;;;;;;5.80;3.63;;;4.60;99.90;;;;;;5024645;28;20870;-77
2023/04/06 08:54:32;;;;;;;7.27;3.47;;;4.60;99.90;;;;;;5026669;28;20234;-77
2023/04/06 08:57:23;;;;;;;6.50;3.73;;;4.50;99.90;;;;;;5017739;28;20354;-77
2023/04/06 09:00:13;;;;;;;11.63;4.10;;;4.70;99.90;;;;;;5001061;28;20310;-79
2023/04/06 09:03:04;;;;;;;6.93;3.93;;;4.60;99.90;;;;;;5042231;28;20857;-77
2023/04/06 09:05:55;;;;;;;6.93;3.63;;;4.60;99.90;;;;;;5027110;28;20384;-76
2023/04/06 09:08:44;;;;;;;7.60;3.73;;;4.70;99.90;;;;;;5026078;28;20738;-77
2023/04/06 09:11:43;;;;;;;7.63;4.43;;;5.00;99.90;;;;;;5024868;28;20453;-77
2023/04/06 09:14:37;;;;;;;8.00;4.30;;;4.70;99.90;;;;;;5018918;28;20586;-77
2023/04/06 09:17:27;;;;;;;6.30;4.10;;;4.80;99.90;;;;;;5036032;28;20218;-77
2023/04/06 09:20:25;;;;;;;7.50;3.83;;;4.70;99.90;;;;;;5018630;28;20716;-77
2023/04/06 09:23:20;;;;;;;8.43;3.70;;;4.60;99.90;;;;;;5014896;28;20247;-77
2023/04/06 09:26:11;;;;;;;9.77;4.53;;;4.60;99.90;;;;;;5025572;28;20285;-77
2023/04/06 09:29:01;;;;;;;9.53;5.30;;;4.50;99.90;;;;;;5037980;28;20217;-77
2023/04/06 09:31:50;;;;;;;6.93;4.90;;;4.70;99.90;;;;;;5031325;28;20221;-77
2023/04/06 09:34:40;;;;;;;10.17;4.97;;;5.00;99.90;;;;;;5043949;28;20260;-77
2023/04/06 09:37:29;;;;;;;10.10;5.00;;;5.10;99.90;;;;;;5039379;28;20224;-76
2023/04/06 09:40:21;;;;;;;8.60;5.40;;;5.30;99.90;;;;;;5053274;28;20317;-77
2023/04/06 09:43:11;;;;;;;9.47;5.37;;;5.40;99.90;;;;;;5038865;28;20700;-77
2023/04/06 09:46:03;;;;;;;12.47;6.10;;;5.30;99.90;;;;;;5031425;28;20232;-77
2023/04/06 09:48:53;;;;;;;9.53;5.60;;;5.30;99.90;;;;;;5035133;28;20786;-76
2023/04/06 09:51:47;;;;;;;6.67;5.37;;;5.40;99.90;;;;;;5036864;28;21113;-77
2023/04/06 09:54:37;;;;;;;10.67;6.53;;;5.30;99.90;;;;;;5037294;28;20597;-76
2023/04/06 09:57:33;;;;;;;13.07;6.90;;;5.20;99.90;;;;;;5039581;28;20264;-77
2023/04/06 10:00:23;;;;;;;12.90;7.40;;;4.90;99.90;;;;;;5035152;28;20229;-75
2023/04/06 10:03:21;;;;;;;12.23;7.57;;;5.00;99.90;;;;;;5043773;28;20224;-75
2023/04/06 10:06:12;;;;;;;10.30;7.47;;;5.00;99.90;;;;;;5042895;28;20735;-76
2023/04/06 10:09:04;;;;;;;9.50;6.73;;;4.80;99.90;;;;;;5037505;28;20704;-74
2023/04/06 10:11:53;;;;;;;10.30;6.30;;;5.10;99.90;;;;;;5025663;28;20225;-78
2023/04/06 10:14:44;;;;;;;7.17;5.10;;;5.30;99.90;;;;;;5033130;28;20287;-78
2023/04/06 10:17:33;;;;;;;7.97;4.90;;;5.60;99.90;;;;;;5049280;28;20379;-77
2023/04/06 10:20:25;;;;;;;7.93;4.60;;;5.50;99.90;;;;;;5038757;28;20883;-77
2023/04/06 10:23:20;;;;;;;8.57;5.43;;;5.50;99.90;;;;;;5035788;28;20377;-76
2023/04/06 10:26:16;;;;;;;9.47;5.17;;;5.30;99.90;;;;;;5020223;28;20224;-76
2023/04/06 10:29:06;;;;;;;6.83;4.60;;;5.30;99.90;;;;;;5041021;28;20244;-81
2023/04/06 10:31:56;;;;;;;7.70;4.53;;;5.40;99.90;;;;;;5045900;28;20678;-78
2023/04/06 10:34:45;;;;;;;6.93;4.33;;;4.90;99.90;;;;;;5032015;28;20252;-75
2023/04/06 10:37:48;;;;;;;9.53;5.00;;;5.10;99.90;;;;;;5038819;28;20236;-76
2023/04/06 10:40:38;;;;;;;7.33;4.50;;;5.10;99.90;;;;;;5026810;28;20247;-76
2023/04/06 10:43:27;;;;;;;8.90;4.70;;;5.00;99.90;;;;;;5028277;28;20342;-75
2023/04/06 10:46:26;;;;;;;8.67;4.90;;;5.20;99.90;;;;;;5020435;28;20249;-74
2023/04/06 10:49:16;;;;;;;7.30;4.33;;;5.40;99.90;;;;;;5019592;28;20546;-76
2023/04/06 10:52:07;;;;;;;9.13;4.63;;;5.00;99.90;;;;;;5043303;28;20235;-76
2023/04/06 10:54:56;;;;;;;6.17;4.40;;;4.90;99.90;;;;;;5044043;28;20298;-74
2023/04/06 10:57:48;;;;;;;6.17;4.67;;;4.90;99.90;;;;;;5027265;28;20248;-84
2023/04/06 11:00:45;;;;;;;7.47;4.70;;;4.80;99.90;;;;;;5042271;28;20315;-72
2023/04/06 11:03:44;;;;;;;8.53;5.33;;;5.00;99.90;;;;;;5034950;28;20224;-75
2023/04/06 11:06:35;;;;;;;9.27;5.10;;;5.10;99.90;;;;;;5019315;28;20275;-75
2023/04/06 11:09:28;;;;;;;8.60;5.03;;;5.30;99.90;;;;;;5033794;28;20252;-81
2023/04/06 11:12:22;;;;;;;11.30;5.17;;;5.20;99.90;;;;;;5039921;28;20410;-85
2023/04/06 11:15:12;;;;;;;8.33;4.67;;;5.30;99.90;;;;;;5041168;28;20236;-82
2023/04/06 11:18:05;;;;;;;8.33;4.93;;;5.20;99.90;;;;;;5048830;28;20303;-86
2023/04/06 11:20:54;;;;;;;7.90;5.03;;;5.10;99.90;;;;;;5033879;28;20228;-81
2023/04/06 11:23:44;;;;;;;8.93;5.17;;;5.20;99.90;;;;;;5027651;28;20319;-77
2023/04/06 11:26:37;;;;;;;10.27;5.40;;;5.20;99.90;;;;;;5044324;28;20975;-82
2023/04/06 11:29:28;;;;;;;9.13;5.00;;;5.30;99.90;;;;;;5040992;28;20680;-84
2023/04/06 11:32:24;;;;;;;8.67;5.10;;;5.30;99.90;;;;;;5027081;28;20265;-80
2023/04/06 11:35:21;;;;;;;12.33;5.90;;;5.10;99.90;;;;;;5023764;28;20288;-82
2023/04/06 11:38:10;;;;;;;8.00;5.10;;;5.20;99.90;;;;;;5044368;28;20308;-80
2023/04/06 11:41:03;;;;;;;8.10;5.17;;;5.00;99.90;;;;;;5037531;28;20252;-82
2023/04/06 11:43:56;;;;;;;8.83;5.10;;;5.20;99.90;;;;;;5025825;28;20956;-84
2023/04/06 11:46:53;;;;;;;7.77;5.13;;;5.20;99.90;;;;;;5018536;28;20279;-82
2023/04/06 11:49:44;;;;;;;12.10;5.87;;;5.40;99.90;;;;;;5042428;28;20252;-76
2023/04/06 11:52:33;;;;;;;11.00;5.63;;;5.30;99.90;;;;;;5036211;28;20611;-80
2023/04/06 11:55:22;;;;;;;8.73;5.67;;;5.50;99.90;;;;;;5043173;28;20711;-81
2023/04/06 11:58:13;;;;;;;9.50;5.93;;;5.40;99.90;;;;;;5037147;28;20821;-80
2023/04/06 12:01:05;;;;;;;8.00;5.87;;;4.90;99.90;;;;;;5033906;28;20232;-85
2023/04/06 12:03:54;;;;;;;9.03;5.77;;;5.10;99.90;;;;;;5039989;28;20259;-79
2023/04/06 12:06:43;;;;;;;10.60;5.83;;;4.90;99.90;;;;;;5034229;28;20768;-80
2023/04/06 12:09:34;;;;;;;11.13;5.60;;;5.30;99.90;;;;;;5007115;28;20953;-80
2023/04/06 12:12:23;;;;;;;12.23;6.27;;;5.30;99.90;;;;;;5031380;28;20657;-85
2023/04/06 12:15:13;;;;;;;9.60;6.37;;;5.10;99.90;;;;;;5026434;28;20220;-83
2023/04/06 12:18:02;;;;;;;11.00;7.43;;;5.10;99.90;;;;;;5032097;28;20218;-86
2023/04/06 12:20:52;;;;;;;8.57;6.07;;;5.00;99.90;;;;;;5024192;28;20240;-86
2023/04/06 12:23:41;;;;;;;10.80;6.53;;;4.90;99.90;;;;;;5022157;28;20245;-85
2023/04/06 12:26:31;;;;;;;9.97;6.27;;;5.10;99.90;;;;;;5029999;28;20217;-85
2023/04/06 12:29:20;;;;;;;13.23;7.10;;;5.40;99.90;;;;;;5043542;28;20712;-85
2023/04/06 12:32:10;;;;;;;8.60;6.23;;;5.40;99.90;;;;;;5043313;28;20227;-76
2023/04/06 12:35:01;;;;;;;9.73;6.37;;;5.30;99.90;;;;;;5040871;28;20287;-80
2023/04/06 12:37:50;;;;;;;11.13;7.43;;;5.30;99.90;;;;;;5052201;28;20376;-90
2023/04/06 12:40:39;;;;;;;13.00;6.90;;;5.30;99.90;;;;;;5050704;28;20213;-86
2023/04/06 12:43:28;;;;;;;12.80;7.00;;;5.40;99.90;;;;;;5021492;28;20235;-84
2023/04/06 12:46:17;;;;;;;10.70;7.20;;;5.20;99.90;;;;;;5007740;28;20674;-80
2023/04/06 12:49:08;;;;;;;11.00;7.07;;;5.10;99.90;;;;;;5043483;28;20225;-78
2023/04/06 12:51:57;;;;;;;8.50;6.40;;;4.90;99.90;;;;;;5066514;28;20218;-82
2023/04/06 12:54:46;;;;;;;12.27;6.23;;;5.10;99.90;;;;;;5022036;28;20229;-80
2023/04/06 12:57:38;;;;;;;11.43;6.10;;;5.40;99.90;;;;;;5040811;28;20225;-87
2023/04/06 13:00:27;;;;;;;10.33;6.00;;;5.40;99.90;;;;;;5040494;28;20225;-71
2023/04/06 13:03:16;;;;;;;9.57;5.77;;;5.10;99.90;;;;;;5016446;28;20566;-69
2023/04/06 13:06:08;;;;;;;8.37;5.83;;;5.00;99.90;;;;;;5031510;28;20225;-71
2023/04/06 13:08:56;;;;;;;9.43;5.60;;;5.00;99.90;;;;;;5031677;28;20938;-70
2023/04/06 13:11:45;;;;;;;8.30;5.60;;;4.80;99.90;;;;;;5023324;28;20556;-72
2023/04/06 13:14:34;;;;;;;10.07;5.67;;;4.90;99.90;;;;;;5013810;28;20222;-71
2023/04/06 13:17:23;;;;;;;11.40;5.67;;;4.80;99.90;;;;;;5011665;28;20708;-70
2023/04/06 13:20:13;;;;;;;10.20;5.40;;;4.80;99.90;;;;;;5014922;28;21020;-70
2023/04/06 13:23:03;;;;;;;7.77;5.60;;;4.70;99.90;;;;;;4999637;28;20241;-72
2023/04/06 13:26:00;;;;;;;8.47;5.30;;;4.80;99.90;;;;;;5027175;28;20318;-73
2023/04/06 13:28:49;;;;;;;9.10;6.10;;;5.00;99.90;;;;;;5036608;28;20900;-72
2023/04/06 13:31:38;;;;;;;12.87;8.10;;;5.20;99.90;;;;;;5009680;28;20271;-73
2023/04/06 13:34:27;;;;;;;12.53;7.97;;;5.00;99.90;;;;;;5017128;28;20784;-73
2023/04/06 13:37:17;;;;;;;12.83;8.27;;;4.80;99.90;;;;;;5015560;28;20742;-74
2023/04/06 13:40:08;;;;;;;16.60;7.90;;;5.10;99.90;;;;;;5038321;28;20232;-73
2023/04/06 13:42:58;;;;;;;9.90;6.63;;;5.30;99.90;;;;;;5014674;28;20731;-73
2023/04/06 13:45:52;;;;;;;12.03;6.90;;;5.20;99.90;;;;;;5033057;28;20387;-74
2023/04/06 13:48:41;;;;;;;11.07;7.00;;;5.10;99.90;;;;;;5017533;28;20232;-69
2023/04/06 13:51:30;;;;;;;9.10;6.83;;;5.10;99.90;;;;;;5024146;28;20604;-69
2023/04/06 13:54:20;;;;;;;11.90;6.70;;;5.20;99.90;;;;;;5030964;28;20229;-69
2023/04/06 13:57:12;;;;;;;11.33;6.07;;;5.00;99.90;;;;;;5031300;28;20240;-67
2023/04/06 14:00:00;;;;;;;10.13;6.33;;;5.20;99.90;;;;;;5028504;28;20244;-68
2023/04/06 14:02:55;;;;;;;11.13;7.27;;;5.20;99.90;;;;;;5031933;28;20221;-67
2023/04/06 14:05:45;;;;;;;12.07;7.03;;;5.10;99.90;;;;;;5027753;28;20295;-69
2023/04/06 14:08:34;;;;;;;9.97;7.43;;;5.10;99.90;;;;;;5031112;28;20232;-67
2023/04/06 14:11:22;;;;;;;10.27;6.30;;;5.00;99.90;;;;;;5023172;28;20845;-67
2023/04/06 14:14:13;;;;;;;9.27;6.87;;;4.90;99.90;;;;;;5039804;28;20243;-67
2023/04/06 14:17:02;;;;;;;9.13;6.63;;;5.10;99.90;;;;;;5043654;28;20229;-67
2023/04/06 14:19:51;;;;;;;11.80;6.80;;;5.20;99.90;;;;;;5014664;28;20226;-67
2023/04/06 14:22:40;;;;;;;9.77;6.70;;;4.90;99.90;;;;;;5037251;28;20225;-68
2023/04/06 14:25:30;;;;;;;13.03;7.40;;;4.70;99.90;;;;;;5038404;28;20596;-68
2023/04/06 14:28:21;;;;;;;11.13;7.73;;;5.00;99.90;;;;;;5041452;28;20295;-67
2023/04/06 14:31:14;;;;;;;9.53;7.20;;;5.20;99.90;;;;;;5033978;28;20225;-67
2023/04/06 14:34:04;;;;;;;11.67;7.10;;;5.30;99.90;;;;;;5018777;28;20240;-67
2023/04/06 14:36:53;;;;;;;10.97;6.77;;;5.30;99.90;;;;;;5031879;28;20221;-68
2023/04/06 14:39:42;;;;;;;9.10;6.23;;;5.30;99.90;;;;;;5045587;28;20240;-67
2023/04/06 14:42:31;;;;;;;9.73;6.93;;;5.30;99.90;;;;;;5037744;28;20724;-67
2023/04/06 14:45:21;;;;;;;11.77;7.37;;;5.50;99.90;;;;;;5039004;28;20224;-67
2023/04/06 14:48:12;;;;;;;12.43;6.73;;;5.10;99.90;;;;;;5029849;28;20225;-70
2023/04/06 14:51:01;;;;;;;11.73;7.60;;;5.00;99.90;;;;;;5022737;28;20731;-66
2023/04/06 14:53:49;;;;;;;9.40;6.10;;;5.10;99.90;;;;;;5033399;28;20235;-67
2023/04/06 14:56:38;;;;;;;8.37;5.83;;;5.00;99.90;;;;;;5025846;28;20233;-66
2023/04/06 14:59:27;;;;;;;8.57;5.50;;;4.90;99.90;;;;;;5038154;28;20707;-67